createdAt,value
2022-08-31T00:00:13.575Z,94412.91
2022-08-31T00:02:59.304Z,94415.50
2022-08-31T00:05:26.666Z,94417.81
2022-08-31T00:07:55.575Z,94418.22
2022-08-31T00:10:32.459Z,94416.28
2022-08-31T00:13:01.173Z,94422.06
2022-08-31T00:15:30.403Z,94414.25
2022-08-31T00:17:58.126Z,94416.19
2022-08-31T00:20:33.192Z,94423.09
2022-08-31T00:23:06.944Z,94411.41
2022-08-31T00:25:34.477Z,94404.31
2022-08-31T00:28:01.994Z,94418.41
2022-08-31T00:30:29.341Z,94413.75
2022-08-31T00:32:57.034Z,94411.31
2022-08-31T00:35:25.944Z,94408.22
2022-08-31T00:37:52.784Z,94401.56
2022-08-31T00:40:19.754Z,94406.16
2022-08-31T00:42:46.592Z,94401.84
2022-08-31T00:45:13.835Z,94402.63
2022-08-31T00:47:40.637Z,94395.22
2022-08-31T00:50:10.564Z,94396.81
2022-08-31T00:52:45.887Z,94396.81
2022-08-31T00:55:17.902Z,94398.72
2022-08-31T00:57:48.395Z,94400.31
2022-08-31T01:00:19.042Z,94402.25
2022-08-31T01:02:45.994Z,94389.00
2022-08-31T01:05:13.680Z,94389.78
2022-08-31T01:07:41.307Z,94406.06
2022-08-31T01:10:10.181Z,94400.63
2022-08-31T01:12:37.422Z,94384.31
2022-08-31T01:15:07.208Z,94398.75
2022-08-31T01:17:35.224Z,94397.97
2022-08-31T01:20:49.061Z,94394.84
2022-08-31T01:23:42.987Z,94386.25
2022-08-31T01:26:13.361Z,94392.44
2022-08-31T01:28:40.139Z,94396.66
2022-08-31T01:31:10.076Z,94392.75
2022-08-31T01:33:39.154Z,94393.91
2022-08-31T01:36:11.045Z,94391.19
2022-08-31T01:38:39.794Z,94390.00
2022-08-31T01:41:06.754Z,94393.13
2022-08-31T01:43:35.607Z,94374.84
2022-08-31T01:46:10.467Z,94394.00
2022-08-31T01:48:41.343Z,94376.88
2022-08-31T01:51:10.748Z,94382.28
2022-08-31T01:53:42.155Z,94379.16
2022-08-31T01:56:15.306Z,94379.94
2022-08-31T01:58:42.122Z,94380.31
2022-08-31T02:01:35.557Z,94383.81
2022-08-31T02:04:05.421Z,94374.16
2022-08-31T02:06:33.175Z,94373.78
2022-08-31T02:09:00.499Z,94365.09
2022-08-31T02:11:27.333Z,94374.09
2022-08-31T02:13:54.041Z,94376.81
2022-08-31T02:16:20.808Z,94385.50
2022-08-31T02:18:47.568Z,94378.56
2022-08-31T02:21:14.382Z,94381.00
2022-08-31T02:23:41.996Z,94382.25
2022-08-31T02:26:09.484Z,94378.72
2022-08-31T02:28:37.442Z,94394.25
2022-08-31T02:31:04.815Z,94384.88
2022-08-31T02:33:39.725Z,94379.34
2022-08-31T02:36:07.068Z,94384.38
2022-08-31T02:38:39.285Z,94379.34
2022-08-31T02:41:06.599Z,94385.16
2022-08-31T02:43:35.238Z,94393.66
2022-08-31T02:46:02.428Z,94395.25
2022-08-31T02:48:35.907Z,94375.41
2022-08-31T02:51:06.661Z,94396.47
2022-08-31T02:53:33.529Z,94403.06
2022-08-31T02:56:00.928Z,94400.31
2022-08-31T02:58:27.795Z,94413.47
2022-08-31T03:00:55.084Z,94413.41
2022-08-31T03:03:22.256Z,94415.28
2022-08-31T03:05:49.671Z,94426.53
2022-08-31T03:08:17.557Z,94434.34
2022-08-31T03:10:46.608Z,94431.34
2022-08-31T03:13:13.478Z,94427.91
2022-08-31T03:15:42.149Z,94432.63
2022-08-31T03:18:08.947Z,94438.53
2022-08-31T03:20:36.225Z,94443.22
2022-08-31T03:23:05.489Z,94434.22
2022-08-31T03:25:32.377Z,94437.75
2022-08-31T03:27:59.825Z,94430.31
2022-08-31T03:30:31.360Z,94429.06
2022-08-31T03:33:06.466Z,94443.81
2022-08-31T03:35:35.554Z,94443.88
2022-08-31T03:38:02.673Z,94439.22
2022-08-31T03:40:30.309Z,94437.66
2022-08-31T03:43:00.638Z,94448.88
2022-08-31T03:45:28.515Z,94419.63
2022-08-31T03:47:55.577Z,94427.03
2022-08-31T03:50:24.353Z,94425.84
2022-08-31T03:53:11.837Z,94425.13
2022-08-31T03:55:40.839Z,94417.75
2022-08-31T03:58:08.820Z,94416.59
2022-08-31T04:00:37.126Z,94430.47
2022-08-31T04:03:11.478Z,94416.28
2022-08-31T04:06:01.176Z,94429.84
2022-08-31T04:08:46.359Z,94433.28
2022-08-31T04:11:45.878Z,94440.63
2022-08-31T04:14:48.128Z,94441.09
2022-08-31T04:17:33.670Z,94443.03
2022-08-31T04:20:24.489Z,94434.81
2022-08-31T04:22:56.974Z,94436.75
2022-08-31T04:25:38.865Z,94438.25
2022-08-31T04:28:05.889Z,94423.47
2022-08-31T04:30:32.597Z,94433.22
2022-08-31T04:33:01.943Z,94432.31
2022-08-31T04:35:28.762Z,94432.69
2022-08-31T04:37:55.465Z,94436.19
2022-08-31T04:40:25.492Z,94440.03
2022-08-31T04:42:53.544Z,94436.91
2022-08-31T04:45:24.042Z,94430.19
2022-08-31T04:47:51.525Z,94439.91
2022-08-31T04:50:19.173Z,94435.53
2022-08-31T04:53:06.360Z,94438.19
2022-08-31T04:55:33.150Z,94452.75
2022-08-31T04:57:59.948Z,94442.00
2022-08-31T05:00:27.282Z,94452.88
2022-08-31T05:03:12.543Z,94455.19
2022-08-31T05:05:41.288Z,94441.22
2022-08-31T05:08:08.438Z,94449.03
2022-08-31T05:10:35.282Z,94453.34
2022-08-31T05:13:02.507Z,94459.09
2022-08-31T05:15:31.199Z,94453.56
2022-08-31T05:17:58.401Z,94455.84
2022-08-31T05:20:25.853Z,94453.66
2022-08-31T05:22:52.579Z,94457.63
2022-08-31T05:25:19.283Z,94442.53
2022-08-31T05:27:48.065Z,94449.81
2022-08-31T05:30:15.012Z,94447.09
2022-08-31T05:32:45.822Z,94452.94
2022-08-31T05:35:12.970Z,94459.91
2022-08-31T05:37:42.385Z,94461.13
2022-08-31T05:40:10.550Z,94464.19
2022-08-31T05:42:37.407Z,94462.53
2022-08-31T05:45:04.641Z,94472.69
2022-08-31T05:47:31.421Z,94471.50
2022-08-31T05:49:58.770Z,94476.47
2022-08-31T05:52:25.455Z,94472.63
2022-08-31T05:54:54.119Z,94479.19
2022-08-31T05:57:25.878Z,94476.59
2022-08-31T05:59:54.263Z,94476.13
2022-08-31T06:02:21.483Z,94462.81
2022-08-31T06:04:48.603Z,94470.69
2022-08-31T06:07:19.776Z,94479.31
2022-08-31T06:09:53.607Z,94470.75
2022-08-31T06:12:22.931Z,94473.84
2022-08-31T06:14:52.839Z,94481.97
2022-08-31T06:17:20.427Z,94480.03
2022-08-31T06:19:47.387Z,94485.88
2022-08-31T06:22:14.268Z,94487.31
2022-08-31T06:24:41.002Z,94485.75
2022-08-31T06:27:07.674Z,94488.81
2022-08-31T06:29:36.778Z,94493.88
2022-08-31T06:32:08.199Z,94499.72
2022-08-31T06:34:39.385Z,94503.28
2022-08-31T06:37:08.051Z,94505.97
2022-08-31T06:40:07.973Z,94488.88
2022-08-31T06:42:47.580Z,94502.72
2022-08-31T06:45:46.824Z,94497.69
2022-08-31T06:48:35.642Z,94503.09
2022-08-31T06:51:03.640Z,94503.94
2022-08-31T06:53:30.589Z,94508.63
2022-08-31T06:56:22.884Z,94506.78
2022-08-31T06:59:09.470Z,94507.56
2022-08-31T07:02:08.075Z,94499.97
2022-08-31T07:04:37.214Z,94506.69
2022-08-31T07:07:05.984Z,94506.75
2022-08-31T07:09:33.606Z,94508.31
2022-08-31T07:12:00.329Z,94502.97
2022-08-31T07:14:27.897Z,94505.66
2022-08-31T07:16:58.124Z,94512.25
2022-08-31T07:19:26.089Z,94509.56
2022-08-31T07:21:56.515Z,94506.81
2022-08-31T07:24:27.809Z,94512.53
2022-08-31T07:26:58.233Z,94511.75
2022-08-31T07:29:37.731Z,94521.47
2022-08-31T07:32:04.854Z,94515.19
2022-08-31T07:34:33.886Z,94521.34
2022-08-31T07:37:41.923Z,94516.59
2022-08-31T07:40:28.503Z,94517.06
2022-08-31T07:42:56.532Z,94520.91
2022-08-31T07:45:29.061Z,94527.06
2022-08-31T07:47:59.729Z,94525.81
2022-08-31T07:50:31.677Z,94514.66
2022-08-31T07:53:11.548Z,94526.41
2022-08-31T07:55:47.911Z,94528.75
2022-08-31T07:58:31.199Z,94533.44
2022-08-31T08:01:00.524Z,94530.31
2022-08-31T08:03:30.054Z,94523.63
2022-08-31T08:06:17.942Z,94539.53
2022-08-31T08:09:24.443Z,94543.00
2022-08-31T08:12:06.323Z,94550.84
2022-08-31T08:14:43.056Z,94548.50
2022-08-31T08:17:39.201Z,94547.34
2022-08-31T08:20:13.696Z,94553.97
2022-08-31T08:22:54.147Z,94558.69
2022-08-31T08:25:34.776Z,94556.75
2022-08-31T08:28:39.692Z,94555.19
2022-08-31T08:31:14.283Z,94560.47
2022-08-31T08:33:41.374Z,94564.75
2022-08-31T08:36:08.555Z,94571.44
2022-08-31T08:38:39.604Z,94572.22
2022-08-31T08:41:13.172Z,94573.66
2022-08-31T08:43:52.340Z,94574.38
2022-08-31T08:46:35.984Z,94572.47
2022-08-31T08:49:15.105Z,94575.94
2022-08-31T08:51:43.622Z,94570.81
2022-08-31T08:54:13.493Z,94585.94
2022-08-31T08:56:49.212Z,94588.19
2022-08-31T08:59:20.690Z,94587.34
2022-08-31T09:01:54.007Z,94602.88
2022-08-31T09:04:59.857Z,94598.63
2022-08-31T09:08:10.371Z,94606.00
2022-08-31T09:10:55.782Z,94587.34
2022-08-31T09:13:44.235Z,94593.81
2022-08-31T09:16:20.650Z,94603.88
2022-08-31T09:18:56.881Z,94587.38
2022-08-31T09:21:29.482Z,94594.66
2022-08-31T09:24:13.293Z,94599.78
2022-08-31T09:27:17.796Z,94598.22
2022-08-31T09:29:54.065Z,94599.34
2022-08-31T09:32:31.474Z,94598.31
2022-08-31T09:35:17.103Z,94599.44
2022-08-31T09:37:57.153Z,94590.88
2022-08-31T09:40:48.359Z,94592.91
2022-08-31T09:43:24.981Z,94597.50
2022-08-31T09:46:00.715Z,94590.50
2022-08-31T09:48:52.011Z,94595.97
2022-08-31T09:51:36.917Z,94594.78
2022-08-31T09:54:34.709Z,94592.09
2022-08-31T09:57:04.985Z,94588.53
2022-08-31T09:59:43.895Z,94592.00
2022-08-31T10:02:22.744Z,94591.75
2022-08-31T10:04:55.556Z,94587.13
2022-08-31T10:07:31.922Z,94587.28
2022-08-31T10:10:20.419Z,94586.56
2022-08-31T10:13:16.201Z,94581.97
2022-08-31T10:16:14.687Z,94580.44
2022-08-31T10:18:57.658Z,94572.47
2022-08-31T10:21:40.687Z,94577.31
2022-08-31T10:24:28.427Z,94582.16
2022-08-31T10:27:32.341Z,94577.41
2022-08-31T10:30:06.926Z,94582.47
2022-08-31T10:32:42.560Z,94583.44
2022-08-31T10:35:21.396Z,94586.66
2022-08-31T10:37:55.508Z,94582.81
2022-08-31T10:40:32.230Z,94586.41
2022-08-31T10:43:29.270Z,94586.13
2022-08-31T10:45:59.938Z,94584.50
2022-08-31T10:48:27.839Z,94579.84
2022-08-31T10:51:14.296Z,94587.34
2022-08-31T10:54:04.326Z,94589.88
2022-08-31T10:56:50.692Z,94577.19
2022-08-31T10:59:38.275Z,94576.53
2022-08-31T11:02:27.147Z,94583.75
2022-08-31T11:05:01.411Z,94580.09
2022-08-31T11:08:03.994Z,94582.59
2022-08-31T11:10:49.332Z,94585.13
2022-08-31T11:13:39.306Z,94578.31
2022-08-31T11:16:27.192Z,94588.28
2022-08-31T11:19:13.130Z,94581.22
2022-08-31T11:21:45.718Z,94581.88
2022-08-31T11:24:39.756Z,94583.22
2022-08-31T11:27:23.708Z,94576.91
2022-08-31T11:29:56.829Z,94575.47
2022-08-31T11:32:39.813Z,94582.91
2022-08-31T11:35:10.028Z,94588.34
2022-08-31T11:37:55.795Z,94584.47
2022-08-31T11:40:44.185Z,94583.66
2022-08-31T11:43:15.297Z,94578.94
2022-08-31T11:45:43.011Z,94581.22
2022-08-31T11:48:51.610Z,94576.59
2022-08-31T11:51:44.995Z,94580.53
2022-08-31T11:54:13.670Z,94585.59
2022-08-31T11:56:47.546Z,94582.41
2022-08-31T11:59:32.714Z,94583.16
2022-08-31T12:02:23.428Z,94581.59
2022-08-31T12:04:53.638Z,94583.56
2022-08-31T12:07:35.983Z,94575.81
2022-08-31T12:10:15.461Z,94576.63
2022-08-31T12:12:55.047Z,94570.38
2022-08-31T12:15:27.787Z,94575.06
2022-08-31T12:18:03.922Z,94579.00
2022-08-31T12:21:26.736Z,94568.88
2022-08-31T12:24:18.895Z,94560.31
2022-08-31T12:26:55.020Z,94566.41
2022-08-31T12:29:28.278Z,94560.69
2022-08-31T12:32:02.214Z,94563.94
2022-08-31T12:34:30.056Z,94572.53
2022-08-31T12:36:56.753Z,94565.34
2022-08-31T12:39:26.267Z,94570.09
2022-08-31T12:41:57.730Z,94561.38
2022-08-31T12:44:31.754Z,94558.09
2022-08-31T12:47:04.563Z,94556.66
2022-08-31T12:50:08.993Z,94556.50
2022-08-31T12:53:32.057Z,94553.91
2022-08-31T12:56:08.618Z,94560.44
2022-08-31T12:58:44.363Z,94552.34
2022-08-31T13:01:13.945Z,94554.81
2022-08-31T13:03:51.754Z,94547.28
2022-08-31T13:06:28.652Z,94560.91
2022-08-31T13:08:55.597Z,94543.44
2022-08-31T13:11:39.786Z,94546.38
2022-08-31T13:14:28.266Z,94552.47
2022-08-31T13:17:06.746Z,94539.69
2022-08-31T13:19:35.223Z,94533.97
2022-08-31T13:22:09.748Z,94538.41
2022-08-31T13:24:41.367Z,94532.34
2022-08-31T13:27:25.593Z,94534.94
2022-08-31T13:29:56.045Z,94529.84
2022-08-31T13:32:27.554Z,94518.47
2022-08-31T13:34:54.960Z,94520.94
2022-08-31T13:37:31.512Z,94526.25
2022-08-31T13:40:08.811Z,94525.34
2022-08-31T13:42:42.784Z,94526.44
2022-08-31T13:45:25.196Z,94514.06
2022-08-31T13:47:57.658Z,94515.78
2022-08-31T13:50:30.873Z,94511.56
2022-08-31T13:53:25.432Z,94509.03
2022-08-31T13:55:48.878Z,94514.22
2022-08-31T13:58:28.883Z,94509.03
2022-08-31T14:01:32.703Z,94502.81
2022-08-31T14:04:00.048Z,94507.59
2022-08-31T14:06:34.932Z,94508.69
2022-08-31T14:09:13.404Z,94508.31
2022-08-31T14:11:52.917Z,94509.50
2022-08-31T14:14:29.953Z,94506.31
2022-08-31T14:16:58.521Z,94507.03
2022-08-31T14:19:33.628Z,94509.16
2022-08-31T14:22:33.064Z,94518.00
2022-08-31T14:25:00.929Z,94516.41
2022-08-31T14:27:29.309Z,94516.16
2022-08-31T14:29:57.678Z,94523.66
2022-08-31T14:32:25.721Z,94517.06
2022-08-31T14:34:53.428Z,94523.69
2022-08-31T14:37:21.090Z,94517.44
2022-08-31T14:39:57.734Z,94510.03
2022-08-31T14:42:28.988Z,94503.41
2022-08-31T14:45:09.439Z,94512.00
2022-08-31T14:47:44.042Z,94508.88
2022-08-31T14:50:14.202Z,94503.81
2022-08-31T14:52:46.716Z,94507.31
2022-08-31T14:55:15.216Z,94508.88
2022-08-31T14:57:45.691Z,94506.50
2022-08-31T15:00:23.154Z,94507.25
2022-08-31T15:02:54.901Z,94504.78
2022-08-31T15:05:23.955Z,94504.34
2022-08-31T15:07:52.978Z,94509.53
2022-08-31T15:10:24.302Z,94515.47
2022-08-31T15:12:51.728Z,94509.63
2022-08-31T15:15:20.456Z,94505.34
2022-08-31T15:17:50.301Z,94506.91
2022-08-31T15:20:21.541Z,94497.97
2022-08-31T15:22:49.089Z,94513.94
2022-08-31T15:25:17.091Z,94514.34
2022-08-31T15:27:44.391Z,94503.03
2022-08-31T15:30:14.717Z,94507.72
2022-08-31T15:32:47.869Z,94504.19
2022-08-31T15:35:18.973Z,94502.59
2022-08-31T15:37:58.883Z,94500.63
2022-08-31T15:40:29.146Z,94499.81
2022-08-31T15:42:56.153Z,94492.41
2022-08-31T15:45:23.566Z,94492.00
2022-08-31T15:48:08.967Z,94496.66
2022-08-31T15:50:36.095Z,94487.31
2022-08-31T15:53:10.838Z,94488.84
2022-08-31T15:55:40.845Z,94480.31
2022-08-31T15:58:09.542Z,94488.50
2022-08-31T16:00:37.464Z,94490.41
2022-08-31T16:03:06.285Z,94499.38
2022-08-31T16:05:39.411Z,94487.75
2022-08-31T16:08:11.554Z,94490.47
2022-08-31T16:10:43.188Z,94490.84
2022-08-31T16:13:10.237Z,94486.19
2022-08-31T16:15:38.302Z,94486.22
2022-08-31T16:18:06.886Z,94491.69
2022-08-31T16:20:34.834Z,94483.91
2022-08-31T16:23:03.174Z,94491.28
2022-08-31T16:25:47.629Z,94481.94
2022-08-31T16:28:16.213Z,94482.38
2022-08-31T16:30:45.182Z,94484.31
2022-08-31T16:33:12.328Z,94487.78
2022-08-31T16:35:39.465Z,94486.19
2022-08-31T16:38:07.296Z,94488.50
2022-08-31T16:40:35.681Z,94488.91
2022-08-31T16:43:03.555Z,94484.63
2022-08-31T16:45:30.529Z,94480.66
2022-08-31T16:48:15.957Z,94480.56
2022-08-31T16:50:47.722Z,94481.97
2022-08-31T16:53:18.445Z,94488.16
2022-08-31T16:55:47.628Z,94484.25
2022-08-31T16:58:29.622Z,94490.41
2022-08-31T17:01:03.687Z,94490.72
2022-08-31T17:03:30.546Z,94500.41
2022-08-31T17:05:57.345Z,94501.16
2022-08-31T17:08:24.093Z,94498.38
2022-08-31T17:10:51.468Z,94492.13
2022-08-31T17:13:18.227Z,94489.00
2022-08-31T17:15:45.044Z,94485.50
2022-08-31T17:18:11.849Z,94493.28
2022-08-31T17:20:40.241Z,94497.88
2022-08-31T17:23:06.990Z,94503.25
2022-08-31T17:25:35.898Z,94502.47
2022-08-31T17:28:07.680Z,94514.16
2022-08-31T17:30:34.690Z,94510.19
2022-08-31T17:33:01.612Z,94513.59
2022-08-31T17:35:29.076Z,94524.34
2022-08-31T17:37:56.615Z,94525.88
2022-08-31T17:40:23.524Z,94517.28
2022-08-31T17:42:53.495Z,94519.13
2022-08-31T17:45:21.857Z,94518.25
2022-08-31T17:47:48.606Z,94523.69
2022-08-31T17:50:19.740Z,94529.44
2022-08-31T17:52:47.543Z,94531.72
2022-08-31T17:55:14.606Z,94534.09
2022-08-31T17:57:42.396Z,94537.44
2022-08-31T18:00:10.004Z,94538.03
2022-08-31T18:02:37.803Z,94532.88
2022-08-31T18:05:11.859Z,94530.88
2022-08-31T18:07:39.751Z,94540.06
2022-08-31T18:10:06.914Z,94543.94
2022-08-31T18:12:40.989Z,94544.75
2022-08-31T18:15:13.078Z,94544.81
2022-08-31T18:17:40.731Z,94547.06
2022-08-31T18:20:08.338Z,94545.81
2022-08-31T18:22:35.123Z,94543.88
2022-08-31T18:25:02.068Z,94549.31
2022-08-31T18:27:29.366Z,94560.53
2022-08-31T18:29:56.685Z,94559.78
2022-08-31T18:32:27.127Z,94566.28
2022-08-31T18:34:57.156Z,94574.31
2022-08-31T18:37:25.779Z,94579.75
2022-08-31T18:40:11.960Z,94576.25
2022-08-31T18:42:57.679Z,94574.72
2022-08-31T18:45:26.280Z,94575.47
2022-08-31T18:50:44.957Z,94579.78
2022-08-31T18:53:15.309Z,94583.28
2022-08-31T18:55:44.168Z,94581.78
2022-08-31T18:58:11.783Z,94583.28
2022-08-31T19:00:40.588Z,94591.78
2022-08-31T19:03:07.703Z,94589.09
2022-08-31T19:05:39.146Z,94588.72
2022-08-31T19:08:06.263Z,94584.38
2022-08-31T19:10:34.849Z,94582.88
2022-08-31T19:13:07.480Z,94584.38
2022-08-31T19:15:39.655Z,94588.72
2022-08-31T19:18:08.419Z,94584.50
2022-08-31T19:20:35.863Z,94582.16
2022-08-31T19:23:03.306Z,94575.34
2022-08-31T19:25:32.105Z,94574.38
2022-08-31T19:28:01.587Z,94568.38
2022-08-31T19:30:29.353Z,94578.06
2022-08-31T19:32:56.852Z,94575.66
2022-08-31T19:35:26.948Z,94572.41
2022-08-31T19:37:56.733Z,94576.06
2022-08-31T19:40:43.039Z,94577.88
2022-08-31T19:46:15.961Z,94570.66
2022-08-31T19:48:44.727Z,94577.94
2022-08-31T19:51:14.568Z,94575.50
2022-08-31T19:53:45.368Z,94570.72
2022-08-31T19:56:19.082Z,94576.84
2022-08-31T19:58:48.666Z,94577.19
2022-08-31T20:01:18.271Z,94571.41
2022-08-31T20:03:48.121Z,94567.56
2022-08-31T20:06:19.431Z,94567.56
2022-08-31T20:08:47.976Z,94576.84
2022-08-31T20:11:21.840Z,94574.97
2022-08-31T20:13:49.742Z,94574.56
2022-08-31T20:16:17.723Z,94570.63
2022-08-31T20:18:48.773Z,94572.50
2022-08-31T20:21:19.327Z,94574.91
2022-08-31T20:23:53.631Z,94569.78
2022-08-31T20:26:27.875Z,94570.31
2022-08-31T20:29:09.288Z,94567.03
2022-08-31T20:31:40.335Z,94565.47
2022-08-31T20:34:08.042Z,94563.63
2022-08-31T20:36:38.191Z,94568.47
2022-08-31T20:39:08.663Z,94562.06
2022-08-31T20:41:40.459Z,94569.75
2022-08-31T20:44:12.114Z,94564.34
2022-08-31T20:47:04.302Z,94567.84
2022-08-31T20:49:37.605Z,94565.31
2022-08-31T20:52:05.608Z,94565.88
2022-08-31T20:54:33.271Z,94556.41
2022-08-31T20:57:03.010Z,94565.22
2022-08-31T20:59:31.462Z,94562.88
2022-08-31T21:02:00.013Z,94569.44
2022-08-31T21:04:29.218Z,94558.03
2022-08-31T21:07:00.476Z,94560.13
2022-08-31T21:09:27.361Z,94552.25
2022-08-31T21:11:56.062Z,94563.66
2022-08-31T21:14:27.332Z,94565.84
2022-08-31T21:16:56.794Z,94562.22
2022-08-31T21:19:24.327Z,94564.84
2022-08-31T21:21:56.516Z,94561.25
2022-08-31T21:24:23.417Z,94560.31
2022-08-31T21:26:59.200Z,94565.00
2022-08-31T21:29:28.250Z,94563.72
2022-08-31T21:32:01.283Z,94571.22
2022-08-31T21:34:30.499Z,94569.22
2022-08-31T21:36:57.388Z,94561.81
2022-08-31T21:39:25.068Z,94561.81
2022-08-31T21:41:52.130Z,94567.91
2022-08-31T21:44:24.370Z,94559.41
2022-08-31T21:46:51.457Z,94563.22
2022-08-31T21:49:19.569Z,94556.59
2022-08-31T21:51:53.142Z,94563.47
2022-08-31T21:54:22.838Z,94565.41
2022-08-31T21:56:52.796Z,94563.81
2022-08-31T21:59:22.106Z,94571.31
2022-08-31T22:01:51.940Z,94566.44
2022-08-31T22:04:20.998Z,94574.09
2022-08-31T22:06:49.783Z,94572.16
2022-08-31T22:09:22.568Z,94569.91
2022-08-31T22:11:54.036Z,94559.41
2022-08-31T22:14:26.171Z,94573.75
2022-08-31T22:16:56.260Z,94576.00
2022-08-31T22:19:25.687Z,94581.16
2022-08-31T22:21:56.590Z,94579.50
2022-08-31T22:24:28.154Z,94576.34
2022-08-31T22:26:58.609Z,94577.41
2022-08-31T22:29:28.756Z,94577.06
2022-08-31T22:32:01.896Z,94585.63
2022-08-31T22:34:28.975Z,94588.91
2022-08-31T22:36:56.566Z,94585.66
2022-08-31T22:39:28.412Z,94590.06
2022-08-31T22:41:57.821Z,94585.75
2022-08-31T22:44:27.149Z,94589.47
2022-08-31T22:46:57.187Z,94591.72
2022-08-31T22:49:26.169Z,94587.91
2022-08-31T22:51:54.587Z,94595.31
2022-08-31T22:54:23.101Z,94597.91
2022-08-31T22:56:50.638Z,94592.16
2022-08-31T22:59:24.833Z,94590.25
2022-08-31T23:01:55.304Z,94587.81
2022-08-31T23:04:25.112Z,94585.78
2022-08-31T23:06:53.414Z,94585.63
2022-08-31T23:09:21.962Z,94585.69
2022-08-31T23:11:51.674Z,94577.91
2022-08-31T23:14:21.367Z,94577.91
2022-08-31T23:16:59.326Z,94577.84
2022-08-31T23:19:54.253Z,94577.41
2022-08-31T23:22:21.995Z,94576.19
2022-08-31T23:24:51.891Z,94579.00
2022-08-31T23:27:21.750Z,94570.88
2022-08-31T23:29:52.459Z,94575.16
2022-08-31T23:32:22.109Z,94574.63
2022-08-31T23:34:52.540Z,94576.88
2022-08-31T23:37:23.003Z,94571.69
2022-08-31T23:39:53.980Z,94562.44
2022-08-31T23:42:23.146Z,94569.47
2022-08-31T23:44:49.917Z,94563.28
2022-08-31T23:47:20.288Z,94564.94
2022-08-31T23:49:50.693Z,94561.91
2022-08-31T23:52:21.309Z,94554.59
2022-08-31T23:54:50.478Z,94552.66
2022-08-31T23:57:31.375Z,94544.91
